CMA CGM Hugo — DCTA2 — position and weather

sailwx.info

Track history (hours):
 
Tides and Currents Weather Stations Pressure Air Temp Water Temp Dewpoint Dewpoint Depression Visibility Wind Speed Wind Dir Waves Ship Positions

CMA CGM Hugo

Last reported at 2014-Oct-30 22:23 UTC. Time now 2014-Nov-01 06:21 UTC.
Position S 27°49' W 048°13'.

Length 334.1 m; beam 42.8 m; draft 14.5 m.

Type: Ship. MMSI: 211831000.

Date/timePositionNaut miles runAvg speedWind from/ knotsBaromVisibWave heightAir tempDewpointWater temp
2014-Oct-30 22:23S 27°49' W 048°13'1822.2
2014-Oct-30 21:33S 27°31' W 048°09'  
2014-Oct-28 16:06S 24°16' W 046°27'814.1
2014-Oct-28 15:33S 24°09' W 046°24'1110.9
2014-Oct-28 14:33S 23°60' W 046°18'2 1.7
2014-Oct-28 13:33S 23°58' W 046°17'0 0.0
2014-Oct-28 12:30S 23°58' W 046°17'0 0.0
2014-Oct-28 11:30S 23°58' W 046°17'0 0.0
2014-Oct-28 10:32S 23°58' W 046°17'0 0.0
2014-Oct-28 09:32S 23°58' W 046°17'0 0.0
2014-Oct-28 08:25S 23°58' W 046°17'0 0.0
2014-Oct-28 07:31S 23°58' W 046°17'0 0.0
2014-Oct-28 06:33S 23°58' W 046°17'0 0.0
2014-Oct-28 05:33S 23°58' W 046°17'0 0.0
2014-Oct-28 04:32S 23°58' W 046°17'0 0.0
2014-Oct-28 03:32S 23°58' W 046°17'0 0.0
2014-Oct-28 02:32S 23°58' W 046°17'0 0.0
2014-Oct-28 01:31S 23°58' W 046°17'0 0.0
2014-Oct-28 00:31S 23°58' W 046°17'0 0.0
2014-Oct-27 23:33S 23°58' W 046°17'0 0.0
2014-Oct-27 22:33S 23°58' W 046°17'0 0.0
2014-Oct-27 21:32S 23°58' W 046°17'0 0.0
2014-Oct-27 20:32S 23°58' W 046°17'0 0.0
2014-Oct-27 19:32S 23°58' W 046°17'0 0.0
2014-Oct-27 18:31S 23°58' W 046°17'0 0.0
2014-Oct-27 17:31S 23°58' W 046°17'0 0.0
2014-Oct-27 16:33S 23°58' W 046°17'0 0.0
2014-Oct-27 15:33S 23°58' W 046°17'0 0.0
2014-Oct-27 14:33S 23°58' W 046°17'0 0.0
2014-Oct-27 13:33S 23°58' W 046°17'0 0.3
2014-Oct-27 12:33S 23°58' W 046°18'7 6.8
2014-Oct-27 11:33S 24°04' W 046°22'6 5.9
2014-Oct-27 10:31S 24°09' W 046°19'0 0.0
2014-Oct-27 09:31S 24°09' W 046°19'0 0.0
2014-Oct-27 08:25S 24°09' W 046°19'0 0.0
2014-Oct-27 07:30S 24°09' W 046°19'0 0.0
2014-Oct-27 06:30S 24°09' W 046°19'4 7.3
2014-Oct-27 06:00S 24°06' W 046°18'4 8.1 110 / 61015.010.8 21.2 20.0
2014-Oct-27 05:32S 24°09' W 046°19'0 0.0
2014-Oct-27 04:17S 24°09' W 046°19'0 0.0
2014-Oct-27 03:31S 24°09' W 046°19'0 0.0
2014-Oct-27 02:31S 24°09' W 046°19'0 0.0
2014-Oct-27 01:31S 24°09' W 046°19'0 0.0
2014-Oct-27 00:27S 24°09' W 046°19'0 0.0
2014-Oct-26 23:33S 24°09' W 046°19'0 0.0
2014-Oct-26 22:32S 24°09' W 046°19'0 0.0
2014-Oct-26 21:32S 24°09' W 046°19'0 0.0
2014-Oct-26 19:31S 24°09' W 046°19'0 0.0
2014-Oct-26 18:12S 24°09' W 046°19'416.9
2014-Oct-26 18:00S 24°06' W 046°18'4 5.6 170 / 121013.510.8 26.0 21.0
2014-Oct-26 17:21S 24°09' W 046°19'0 0.0
2014-Oct-26 16:33S 24°09' W 046°19'0 0.0
2014-Oct-26 09:21S 24°09' W 046°19'0 0.0
2014-Oct-26 07:26S 24°09' W 046°19'0 0.0
2014-Oct-26 06:31S 24°09' W 046°19'163307.4
2014-Oct-26 06:00S 24°06' W 049°18'163281.9 150 / 51011.0 5.4 22.5 21.0
2014-Oct-26 05:25S 24°09' W 046°19'0 0.0
2014-Oct-26 04:30S 24°09' W 046°19'0 0.0
2014-Oct-26 03:33S 24°09' W 046°19'0 0.0
2014-Oct-26 02:33S 24°09' W 046°19'3 2.7
2014-Oct-26 01:33S 24°11' W 046°21'34315.9
2014-Oct-25 04:00S 25°24' W 040°12'26916.8 050 / 151017.0 5.4 21.0 22.0
2014-Oct-24 12:00S 26°12' W 035°18'14818.5 040 / 61021.310.8 22.0 21.0
2014-Oct-24 04:00S 26°42' W 032°36'38517.5 060 / 91021.010.8 18.0 20.0
2014-Oct-23 06:00S 27°54' W 025°30'3216.2 150 / 181019.310.8 17.5 19.0
2014-Oct-23 04:00S 28°00' W 024°54'17717.7 170 / 241020.010.8 17.5 19.0
2014-Oct-22 18:00S 28°30' W 021°36'13917.4 160 / 161017.5 5.4 17.5 19.0
2014-Oct-22 10:00S 28°54' W 019°00'6917.3 350 / 301016.5 5.4 19.5 18.0
2014-Oct-22 06:00S 29°06' W 017°42'3216.0 360 / 251015.010.8 19.5 19.0
2014-Oct-22 04:00S 29°12' W 017°06'16017.7 360 / 301016.010.8 19.0 18.0
2014-Oct-21 19:00S 29°42' W 014°06'22217.1 360 / 301018.327.0 19.5 18.0
2014-Oct-21 06:00S 30°24' W 009°54'   360 / 231020.510.8 17.5 17.0
Track history (hours):
 
Tides and Currents Weather Stations Pressure Air Temp Water Temp Dewpoint Dewpoint Depression Visibility Wind Speed Wind Dir Waves Ship Positions

CMA CGM Hugo

Last reported at 2014-Oct-30 22:23 UTC. Time now 2014-Nov-01 06:21 UTC.
Position S 27°49' W 048°13'.

Length 334.1 m; beam 42.8 m; draft 14.5 m.

Type: Ship. MMSI: 211831000.

Date/timePositionNaut miles runAvg speedWind from/ knotsBaromVisibWave heightAir tempDewpointWater temp
2014-Oct-30 22:23S 27°49' W 048°13'1822.2
2014-Oct-30 21:33S 27°31' W 048°09'  
2014-Oct-28 16:06S 24°16' W 046°27'814.1
2014-Oct-28 15:33S 24°09' W 046°24'1110.9
2014-Oct-28 14:33S 23°60' W 046°18'2 1.7
2014-Oct-28 13:33S 23°58' W 046°17'0 0.0
2014-Oct-28 12:30S 23°58' W 046°17'0 0.0
2014-Oct-28 11:30S 23°58' W 046°17'0 0.0
2014-Oct-28 10:32S 23°58' W 046°17'0 0.0
2014-Oct-28 09:32S 23°58' W 046°17'0 0.0
2014-Oct-28 08:25S 23°58' W 046°17'0 0.0
2014-Oct-28 07:31S 23°58' W 046°17'0 0.0
2014-Oct-28 06:33S 23°58' W 046°17'0 0.0
2014-Oct-28 05:33S 23°58' W 046°17'0 0.0
2014-Oct-28 04:32S 23°58' W 046°17'0 0.0
2014-Oct-28 03:32S 23°58' W 046°17'0 0.0
2014-Oct-28 02:32S 23°58' W 046°17'0 0.0
2014-Oct-28 01:31S 23°58' W 046°17'0 0.0
2014-Oct-28 00:31S 23°58' W 046°17'0 0.0
2014-Oct-27 23:33S 23°58' W 046°17'0 0.0
2014-Oct-27 22:33S 23°58' W 046°17'0 0.0
2014-Oct-27 21:32S 23°58' W 046°17'0 0.0
2014-Oct-27 20:32S 23°58' W 046°17'0 0.0
2014-Oct-27 19:32S 23°58' W 046°17'0 0.0
2014-Oct-27 18:31S 23°58' W 046°17'0 0.0
2014-Oct-27 17:31S 23°58' W 046°17'0 0.0
2014-Oct-27 16:33S 23°58' W 046°17'0 0.0
2014-Oct-27 15:33S 23°58' W 046°17'0 0.0
2014-Oct-27 14:33S 23°58' W 046°17'0 0.0
2014-Oct-27 13:33S 23°58' W 046°17'0 0.3
2014-Oct-27 12:33S 23°58' W 046°18'7 6.8
2014-Oct-27 11:33S 24°04' W 046°22'6 5.9
2014-Oct-27 10:31S 24°09' W 046°19'0 0.0
2014-Oct-27 09:31S 24°09' W 046°19'0 0.0
2014-Oct-27 08:25S 24°09' W 046°19'0 0.0
2014-Oct-27 07:30S 24°09' W 046°19'0 0.0
2014-Oct-27 06:30S 24°09' W 046°19'4 7.3
2014-Oct-27 06:00S 24°06' W 046°18'4 8.1 110 / 61015.010.8 21.2 20.0
2014-Oct-27 05:32S 24°09' W 046°19'0 0.0
2014-Oct-27 04:17S 24°09' W 046°19'0 0.0
2014-Oct-27 03:31S 24°09' W 046°19'0 0.0
2014-Oct-27 02:31S 24°09' W 046°19'0 0.0
2014-Oct-27 01:31S 24°09' W 046°19'0 0.0
2014-Oct-27 00:27S 24°09' W 046°19'0 0.0
2014-Oct-26 23:33S 24°09' W 046°19'0 0.0
2014-Oct-26 22:32S 24°09' W 046°19'0 0.0
2014-Oct-26 21:32S 24°09' W 046°19'0 0.0
2014-Oct-26 19:31S 24°09' W 046°19'0 0.0
2014-Oct-26 18:12S 24°09' W 046°19'416.9
2014-Oct-26 18:00S 24°06' W 046°18'4 5.6 170 / 121013.510.8 26.0 21.0
2014-Oct-26 17:21S 24°09' W 046°19'0 0.0
2014-Oct-26 16:33S 24°09' W 046°19'0 0.0
2014-Oct-26 09:21S 24°09' W 046°19'0 0.0
2014-Oct-26 07:26S 24°09' W 046°19'0 0.0
2014-Oct-26 06:31S 24°09' W 046°19'163307.4
2014-Oct-26 06:00S 24°06' W 049°18'163281.9 150 / 51011.0 5.4 22.5 21.0
2014-Oct-26 05:25S 24°09' W 046°19'0 0.0
2014-Oct-26 04:30S 24°09' W 046°19'0 0.0
2014-Oct-26 03:33S 24°09' W 046°19'0 0.0
2014-Oct-26 02:33S 24°09' W 046°19'3 2.7
2014-Oct-26 01:33S 24°11' W 046°21'34315.9
2014-Oct-25 04:00S 25°24' W 040°12'26916.8 050 / 151017.0 5.4 21.0 22.0
2014-Oct-24 12:00S 26°12' W 035°18'14818.5 040 / 61021.310.8 22.0 21.0
2014-Oct-24 04:00S 26°42' W 032°36'38517.5 060 / 91021.010.8 18.0 20.0
2014-Oct-23 06:00S 27°54' W 025°30'3216.2 150 / 181019.310.8 17.5 19.0
2014-Oct-23 04:00S 28°00' W 024°54'17717.7 170 / 241020.010.8 17.5 19.0
2014-Oct-22 18:00S 28°30' W 021°36'13917.4 160 / 161017.5 5.4 17.5 19.0
2014-Oct-22 10:00S 28°54' W 019°00'6917.3 350 / 301016.5 5.4 19.5 18.0
2014-Oct-22 06:00S 29°06' W 017°42'3216.0 360 / 251015.010.8 19.5 19.0
2014-Oct-22 04:00S 29°12' W 017°06'16017.7 360 / 301016.010.8 19.0 18.0
2014-Oct-21 19:00S 29°42' W 014°06'22217.1 360 / 301018.327.0 19.5 18.0
2014-Oct-21 06:00S 30°24' W 009°54'   360 / 231020.510.8 17.5 17.0

Dump ship's entire track history